Time;durP1;ratioP1;P1;durP2;ratioP2;P2;SDS_P1;SDS_P2;PMS_P1;PMS_P2;Temp;Humidity;BMP_temperature;BMP_pressure;BME280_temperature;BME280_humidity;BME280_pressure;Samples;Min_cycle;Max_cycle;Signal;HPM_P1;HPM_P2
2023/01/28 00:01:25;;;;;;;1.17;1.10;;;;;;;3.63;69.86;96140.81;5046892;28;20713;-72
2023/01/28 00:03:52;;;;;;;1.10;1.00;;;;;;;3.62;70.76;96143.44;5045877;28;20186;-72
2023/01/28 00:06:20;;;;;;;3.73;2.13;;;;;;;3.64;71.28;96144.22;5046963;28;20189;-73
2023/01/28 00:08:47;;;;;;;3.07;1.50;;;;;;;3.59;70.59;96158.88;5045677;28;20570;-72
2023/01/28 00:11:14;;;;;;;1.67;1.20;;;;;;;3.60;69.69;96160.56;5045653;28;20419;-72
2023/01/28 00:13:42;;;;;;;2.77;2.10;;;;;;;3.59;70.36;96158.88;5044379;28;20198;-73
2023/01/28 00:16:09;;;;;;;1.80;1.70;;;;;;;3.62;79.38;96158.78;5046617;28;20281;-74
2023/01/28 00:18:37;;;;;;;1.90;1.80;;;;;;;3.69;77.04;96167.94;5046624;28;20186;-73
2023/01/28 00:21:10;;;;;;;2.90;2.30;;;;;;;2.87;84.85;96049.53;5044100;28;20182;-73
2023/01/28 00:23:39;;;;;;;3.13;2.70;;;;;;;3.43;85.48;96155.16;5046681;28;20194;-73
2023/01/28 00:26:11;;;;;;;2.77;2.10;;;;;;;3.60;85.58;96166.53;5043887;28;20198;-72
2023/01/28 00:28:42;;;;;;;2.57;2.00;;;;;;;3.48;87.04;96163.53;5012812;28;20189;-73
2023/01/28 00:31:15;;;;;;;2.30;2.00;;;;;;;3.63;86.43;96179.22;5046028;28;20194;-72
2023/01/28 00:33:43;;;;;;;2.87;2.07;;;;;;;3.47;86.31;96166.94;5045978;28;20197;-73
2023/01/28 00:36:11;;;;;;;2.40;2.10;;;;;;;3.53;87.03;96169.31;5045202;28;20666;-73
2023/01/28 00:38:39;;;;;;;1.80;1.70;;;;;;;3.26;85.72;96177.00;5045251;28;20209;-72
2023/01/28 00:41:12;;;;;;;2.53;2.00;;;;;;;3.32;86.71;96187.94;5045165;28;20218;-72
2023/01/28 00:43:40;;;;;;;3.93;2.20;;;;;;;3.41;87.39;96193.59;5043993;28;20629;-72
2023/01/28 00:46:09;;;;;;;2.77;2.23;;;;;;;3.52;86.86;96195.81;5046437;28;20213;-72
2023/01/28 00:48:39;;;;;;;4.47;2.07;;;;;;;3.68;86.59;96191.88;5046171;28;20305;-72
2023/01/28 00:51:07;;;;;;;2.77;2.23;;;;;;;3.86;85.97;96198.94;5044311;28;20189;-72
2023/01/28 00:53:35;;;;;;;2.53;2.10;;;;;;;3.88;84.92;96194.59;5045058;28;20193;-72
2023/01/28 00:56:07;;;;;;;3.07;2.53;;;;;;;3.89;85.29;96203.97;5047068;28;20190;-72
2023/01/28 00:58:34;;;;;;;2.13;1.93;;;;;;;3.82;85.33;96203.34;5048631;28;20219;-72
2023/01/28 01:01:09;;;;;;;2.70;2.23;;;;;;;3.89;83.78;96202.25;5047651;28;20280;-72
2023/01/28 01:03:37;;;;;;;3.20;2.30;;;;;;;3.98;84.68;96198.53;5048156;28;20638;-72
2023/01/28 01:06:05;;;;;;;2.37;2.00;;;;;;;3.79;84.74;96203.41;5048530;28;20578;-72
2023/01/28 01:08:38;;;;;;;2.47;2.27;;;;;;;3.65;85.44;96202.19;5047521;28;20190;-72
2023/01/28 01:11:07;;;;;;;3.03;2.40;;;;;;;3.37;85.66;96198.84;5049662;28;20189;-72
2023/01/28 01:13:36;;;;;;;3.67;2.40;;;;;;;3.32;85.01;96205.84;5048146;28;20198;-73
2023/01/28 01:16:10;;;;;;;5.03;3.50;;;;;;;3.37;87.06;96209.91;5048299;28;20189;-72
2023/01/28 01:18:42;;;;;;;7.23;3.70;;;;;;;3.22;85.66;96207.81;5048478;28;20196;-73
2023/01/28 01:21:16;;;;;;;5.60;3.10;;;;;;;3.26;82.66;96188.94;5047566;28;20615;-71
2023/01/28 01:23:45;;;;;;;5.23;3.60;;;;;;;3.29;84.83;96210.16;5048270;28;20196;-73
2023/01/28 01:26:13;;;;;;;4.43;3.17;;;;;;;3.29;86.13;96207.59;5046987;28;20298;-73
2023/01/28 01:28:41;;;;;;;3.63;2.87;;;;;;;3.55;86.32;96211.03;5015652;28;20226;-73
2023/01/28 01:31:19;;;;;;;3.90;2.90;;;;;;;3.67;85.55;96208.13;5046711;28;20608;-73
2023/01/28 01:33:48;;;;;;;3.27;2.53;;;;;;;3.56;85.33;96207.63;5048135;28;20181;-72
2023/01/28 01:36:17;;;;;;;3.93;2.90;;;;;;;3.56;84.40;96205.06;5047844;28;20196;-73
2023/01/28 01:38:44;;;;;;;3.63;2.77;;;;;;;3.60;85.27;96206.63;5046926;28;20458;-72
2023/01/28 01:41:31;;;;;;;3.33;3.00;;;;;;;3.47;85.63;96211.31;5047823;28;20312;-73
2023/01/28 01:44:01;;;;;;;4.43;2.77;;;;;;;3.36;86.19;96218.47;5029458;28;20197;-73
2023/01/28 01:46:31;;;;;;;3.03;2.43;;;;;;;3.29;85.45;96217.84;5030951;28;20570;-73
2023/01/28 01:49:07;;;;;;;2.27;2.07;;;;;;;3.34;82.77;96222.78;5046708;28;20198;-71
2023/01/28 01:51:35;;;;;;;3.80;2.63;;;;;;;3.46;82.53;96222.44;5047940;28;20193;-71
2023/01/28 01:54:04;;;;;;;3.23;2.93;;;;;;;3.53;84.47;96225.63;5047565;28;20225;-72
2023/01/28 01:56:37;;;;;;;2.67;2.40;;;;;;;3.64;84.87;96228.69;5047603;28;20237;-73
2023/01/28 01:59:10;;;;;;;2.73;2.33;;;;;;;3.57;85.68;96238.28;5047633;28;20213;-73
2023/01/28 02:01:38;;;;;;;3.47;2.87;;;;;;;3.59;86.09;96225.41;5047662;28;20741;-72
2023/01/28 02:04:14;;;;;;;3.87;2.20;;;;;;;3.43;84.27;96230.19;5030694;28;20292;-73
2023/01/28 02:06:45;;;;;;;3.27;2.90;;;;;;;3.40;86.26;96225.16;5047186;28;20194;-73
2023/01/28 02:09:28;;;;;;;2.40;1.90;;;;;;;3.59;82.59;96228.81;5046213;28;20564;-73
2023/01/28 02:12:00;;;;;;;2.53;2.00;;;;;;;3.69;82.15;96237.06;5047189;28;20181;-72
2023/01/28 02:14:31;;;;;;;2.63;1.87;;;;;;;3.68;80.77;96245.63;5046177;28;20204;-73
2023/01/28 02:17:19;;;;;;;2.20;2.00;;;;;;;3.65;80.61;96245.69;5046753;28;20262;-72
2023/01/28 02:19:48;;;;;;;2.40;2.20;;;;;;;3.54;82.68;96232.44;5046856;28;20685;-74
2023/01/28 02:22:24;;;;;;;3.83;2.97;;;;;;;3.64;84.88;96249.16;5046806;28;20206;-73
2023/01/28 02:25:29;;;;;;;3.10;2.70;;;;;;;3.75;84.75;96242.00;5047031;28;20195;-73
2023/01/28 02:28:29;;;;;;;2.63;2.33;;;;;;;3.63;84.91;96242.34;5046408;28;20186;-72
2023/01/28 02:31:24;;;;;;;3.63;2.63;;;;;;;3.58;85.51;96249.38;5045809;28;20582;-72
2023/01/28 02:34:01;;;;;;;2.57;2.20;;;;;;;3.36;82.08;96233.00;5048448;28;20649;-72
2023/01/28 02:36:53;;;;;;;2.60;2.40;;;;;;;3.48;83.43;96251.38;5046113;28;20197;-74
2023/01/28 02:39:26;;;;;;;3.03;2.63;;;;;;;3.33;84.48;96239.03;5045600;28;20230;-73
2023/01/28 02:42:28;;;;;;;3.70;2.87;;;;;;;3.12;86.60;96239.69;5047824;28;20236;-73
2023/01/28 02:44:55;;;;;;;4.03;2.80;;;;;;;3.04;87.14;96260.38;5045653;28;20181;-73
2023/01/28 02:50:15;;;;;;;3.30;2.50;;;;;;;3.23;87.14;96243.63;5046599;28;20273;-73
2023/01/28 02:56:06;;;;;;;2.57;2.20;;;;;;;3.17;86.03;96264.22;5046423;28;20197;-74
2023/01/28 02:58:43;;;;;;;2.83;2.07;;;;;;;3.07;84.75;96255.16;5046409;28;20190;-73
2023/01/28 03:01:19;;;;;;;1.03;0.97;;;;;;;3.05;76.65;96259.47;5046585;28;20225;-72
2023/01/28 03:04:03;;;;;;;1.20;1.10;;;;;;;3.08;75.57;96254.28;5046682;28;20713;-72
2023/01/28 03:06:45;;;;;;;1.00;0.97;;;;;;;2.98;74.44;96254.59;5046818;28;20284;-72
2023/01/28 03:09:25;;;;;;;1.20;1.10;;;;;;;2.95;74.05;96267.44;5045896;28;20277;-72
2023/01/28 03:38:22;;;;;;;1.80;1.47;;;;;;;2.64;73.39;96267.47;5046124;28;20239;-73
2023/01/28 03:40:54;;;;;;;1.03;1.03;;;;;;;2.64;73.50;96272.59;5044514;28;20305;-73
2023/01/28 03:43:22;;;;;;;1.30;1.20;;;;;;;2.57;73.54;96265.13;5045759;28;20200;-72
2023/01/28 03:45:50;;;;;;;1.20;1.20;;;;;;;2.53;73.49;96266.09;5028582;28;20201;-72
2023/01/28 03:48:18;;;;;;;1.40;1.00;;;;;;;2.53;73.20;96279.72;5028160;28;20193;-71
2023/01/28 03:50:47;;;;;;;1.27;1.17;;;;;;;2.59;73.29;96263.38;5045712;28;20221;-72
2023/01/28 03:53:15;;;;;;;0.90;0.90;;;;;;;2.51;73.15;96253.38;5044409;28;20193;-73
2023/01/28 03:55:52;;;;;;;1.40;1.30;;;;;;;2.57;73.52;96281.31;5045768;28;20272;-74
2023/01/28 03:58:20;;;;;;;1.23;1.10;;;;;;;2.52;73.55;96275.47;5028451;28;20284;-74
2023/01/28 04:00:49;;;;;;;1.27;1.17;;;;;;;2.33;73.35;96225.75;5045361;28;20233;-73
2023/01/28 04:03:19;;;;;;;1.53;1.20;;;;;;;2.58;73.44;96275.31;5045636;28;20268;-73
2023/01/28 04:06:06;;;;;;;1.27;1.17;;;;;;;2.50;73.70;96290.00;5044339;28;20182;-73
2023/01/28 04:08:58;;;;;;;2.13;1.03;;;;;;;2.48;74.58;96296.88;5045596;28;20209;-74
2023/01/28 04:11:30;;;;;;;1.27;1.10;;;;;;;2.46;74.61;96296.06;5045514;28;20282;-74
2023/01/28 04:14:00;;;;;;;1.20;1.03;;;;;;;2.40;75.00;96278.34;5044929;28;20234;-73
2023/01/28 04:16:40;;;;;;;2.53;1.60;;;;;;;2.49;73.89;96294.28;5045378;28;20532;-71
2023/01/28 04:19:14;;;;;;;2.77;1.40;;;;;;;2.61;74.01;96303.34;5041654;28;20259;-71
2023/01/28 04:21:42;;;;;;;1.80;1.40;;;;;;;2.57;74.16;96314.53;5038475;28;20731;-73
2023/01/28 04:24:09;;;;;;;1.90;1.40;;;;;;;2.52;73.81;96298.47;5044049;28;20190;-73
2023/01/28 04:26:36;;;;;;;1.43;1.33;;;;;;;2.46;74.33;96303.75;5046321;28;20694;-71
2023/01/28 04:29:04;;;;;;;1.63;1.40;;;;;;;2.50;73.87;96305.34;5061683;28;20186;-72
2023/01/28 04:31:33;;;;;;;2.07;1.30;;;;;;;2.48;73.52;96313.06;5047360;28;20185;-73
2023/01/28 04:34:23;;;;;;;2.30;1.83;;;;;;;2.40;74.24;96309.84;5042044;28;20827;-74
2023/01/28 04:37:13;;;;;;;2.10;1.40;;;;;;;2.46;74.09;96319.06;5041082;28;20291;-72
2023/01/28 04:39:44;;;;;;;1.20;1.10;;;;;;;2.49;73.33;96319.81;5048662;28;22716;-73
2023/01/28 04:42:38;;;;;;;1.23;1.13;;;;;;;2.45;74.13;96322.53;5048925;28;20236;-73
2023/01/28 04:45:23;;;;;;;1.30;1.20;;;;;;;2.34;74.03;96319.38;5047390;28;20268;-73
2023/01/28 04:47:58;;;;;;;2.13;1.87;;;;;;;2.38;74.85;96334.59;5048859;28;20190;-73
2023/01/28 04:50:52;;;;;;;1.43;1.30;;;;;;;2.39;74.32;96343.94;5047683;28;20201;-74
2023/01/28 04:53:45;;;;;;;1.83;1.47;;;;;;;2.38;73.98;96326.09;5021949;28;20193;-74
2023/01/28 04:56:38;;;;;;;1.43;1.33;;;;;;;2.38;73.97;96332.06;5044680;28;20375;-74
2023/01/28 04:59:07;;;;;;;1.70;1.60;;;;;;;2.36;73.88;96333.81;5064590;28;20239;-72
2023/01/28 05:01:34;;;;;;;1.63;1.33;;;;;;;2.34;72.99;96327.06;5047502;28;20312;-73
2023/01/28 05:04:04;;;;;;;2.10;1.90;;;;;;;2.40;73.77;96339.66;5048795;28;20247;-73
2023/01/28 05:06:34;;;;;;;1.83;1.57;;;;;;;2.27;74.03;96333.19;5027348;28;20288;-72
2023/01/28 05:09:08;;;;;;;1.37;1.27;;;;;;;2.21;72.67;96331.63;5028555;28;20618;-73
2023/01/28 05:11:35;;;;;;;1.27;1.17;;;;;;;2.05;73.43;96306.50;5010365;28;20195;-72
2023/01/28 05:14:06;;;;;;;1.57;1.17;;;;;;;2.24;72.90;96348.59;5028178;28;20189;-73
2023/01/28 05:16:40;;;;;;;1.37;1.20;;;;;;;2.27;72.83;96345.94;5028243;28;20187;-73
2023/01/28 05:19:08;;;;;;;1.20;1.10;;;;;;;2.16;72.82;96348.78;5011119;28;20203;-73
2023/01/28 05:21:39;;;;;;;1.47;1.37;;;;;;;2.18;72.19;96341.94;5011950;28;20222;-72
2023/01/28 05:24:45;;;;;;;2.10;1.40;;;;;;;2.30;72.44;96359.50;4956531;28;20188;-74
2023/01/28 05:27:13;;;;;;;1.33;1.23;;;;;;;2.34;72.29;96360.25;4951925;28;20227;-74
2023/01/28 05:29:40;;;;;;;1.17;1.07;;;;;;;2.24;72.83;96343.50;4970878;28;20222;-74
2023/01/28 05:32:08;;;;;;;2.13;1.40;;;;;;;2.22;73.30;96363.97;5027308;28;20191;-73
2023/01/28 05:34:35;;;;;;;3.23;1.30;;;;;;;2.29;72.60;96367.19;5028493;28;20178;-74
2023/01/28 05:37:08;;;;;;;1.50;1.30;;;;;;;2.26;72.05;96367.28;5010311;28;20194;-74
2023/01/28 05:39:37;;;;;;;1.33;1.23;;;;;;;2.31;72.33;96367.97;5028239;28;20183;-73
2023/01/28 05:42:04;;;;;;;2.33;1.70;;;;;;;2.27;72.51;96386.81;5026166;28;20238;-74
2023/01/28 05:44:33;;;;;;;1.63;1.47;;;;;;;2.25;72.00;96350.25;5027316;28;20625;-73
2023/01/28 05:47:19;;;;;;;1.40;1.30;;;;;;;2.43;72.62;96375.38;5028729;28;20273;-73
2023/01/28 05:50:05;;;;;;;1.73;1.60;;;;;;;2.38;73.23;96385.69;5009284;28;20190;-72
2023/01/28 05:52:42;;;;;;;3.93;1.90;;;;;;;2.37;72.24;96376.34;5028712;28;20236;-72
2023/01/28 05:55:19;;;;;;;1.60;1.50;;;;;;;2.46;72.41;96398.28;5034107;28;20198;-73
2023/01/28 05:57:48;;;;;;;1.40;1.30;;;;;;;2.44;72.58;96397.47;5026499;28;20546;-72
2023/01/28 06:00:18;;;;;;;1.67;1.40;;;;;;;2.52;72.14;96395.56;5027073;28;20300;-73
2023/01/28 06:02:45;;;;;;;2.17;1.57;;;;;;;2.47;71.82;96397.41;5042317;28;20666;-72
2023/01/28 06:05:14;;;;;;;2.07;1.37;;;;;;;2.40;71.61;96390.75;5026872;28;20712;-72
2023/01/28 06:07:46;;;;;;;2.03;1.60;;;;;;;2.39;71.54;96394.22;5042503;28;20685;-72
2023/01/28 06:10:14;;;;;;;1.37;1.27;;;;;;;2.41;71.56;96403.50;5043522;28;20622;-72
2023/01/28 06:12:42;;;;;;;1.20;1.10;;;;;;;2.39;71.63;96410.34;5026856;28;20183;-72
2023/01/28 06:15:27;;;;;;;1.83;1.40;;;;;;;2.40;71.26;96408.66;5027119;28;20187;-71
2023/01/28 06:18:30;;;;;;;2.50;1.27;;;;;;;2.51;71.10;96419.47;5016578;28;20608;-71
2023/01/28 06:20:57;;;;;;;1.80;1.60;;;;;;;2.67;70.53;96430.97;5025624;28;20683;-72
2023/01/28 06:23:25;;;;;;;1.10;1.10;;;;;;;2.74;68.97;96431.66;5026302;28;20190;-72
2023/01/28 06:25:56;;;;;;;2.63;1.80;;;;;;;2.68;69.32;96430.09;5043034;28;20214;-71
2023/01/28 06:28:24;;;;;;;3.17;2.20;;;;;;;2.69;69.29;96434.34;5025629;28;20198;-73
2023/01/28 06:30:52;;;;;;;1.83;1.53;;;;;;;2.86;68.57;96437.31;5026573;28;20640;-73
2023/01/28 06:33:20;;;;;;;5.00;2.50;;;;;;;2.95;69.55;96443.88;5026591;28;20201;-72
2023/01/28 06:35:47;;;;;;;4.90;2.53;;;;;;;3.01;69.18;96441.19;5043131;28;20277;-73
2023/01/28 06:38:14;;;;;;;3.97;2.37;;;;;;;3.10;68.24;96443.50;5027119;28;20189;-74
2023/01/28 06:40:41;;;;;;;1.80;1.70;;;;;;;3.23;68.55;96432.91;5027288;28;20288;-72
2023/01/28 06:43:08;;;;;;;2.57;1.57;;;;;;;3.20;68.26;96429.59;5027624;28;20213;-73
2023/01/28 06:45:35;;;;;;;2.37;1.70;;;;;;;3.09;66.77;96424.75;5035679;28;20714;-72
2023/01/28 06:48:03;;;;;;;3.50;2.57;;;;;;;3.14;68.69;96440.81;5036056;28;20226;-73
2023/01/28 06:50:32;;;;;;;3.53;2.47;;;;;;;3.25;67.79;96440.53;5045809;28;20592;-73
2023/01/28 06:52:59;;;;;;;2.73;2.53;;;;;;;3.36;68.47;96437.69;5046465;28;20194;-72
2023/01/28 06:55:26;;;;;;;14.07;8.73;;;;;;;3.32;70.23;96446.34;5045314;28;20225;-74
2023/01/28 06:57:53;;;;;;;24.53;13.00;;;;;;;3.25;72.46;96432.88;5045997;28;20214;-73
2023/01/28 07:00:21;;;;;;;29.03;13.80;;;;;;;3.60;73.10;96452.38;5045062;28;20217;-73
2023/01/28 07:02:48;;;;;;;33.33;12.80;;;;;;;3.72;71.47;96450.31;5046476;28;20185;-73
2023/01/28 07:05:15;;;;;;;9.73;6.20;;;;;;;3.76;68.38;96454.44;5044386;28;20202;-74
2023/01/28 07:07:44;;;;;;;4.93;2.70;;;;;;;3.58;67.07;96449.84;5041377;28;20194;-73
2023/01/28 07:10:11;;;;;;;5.60;2.70;;;;;;;3.65;68.02;96451.34;5026450;28;20295;-73
2023/01/28 07:12:38;;;;;;;2.47;2.00;;;;;;;3.45;68.32;96447.66;5026358;28;20280;-74
2023/01/28 07:15:06;;;;;;;3.83;1.90;;;;;;;3.58;66.89;96443.91;5042364;28;20781;-74
2023/01/28 07:17:33;;;;;;;4.07;2.47;;;;;;;3.55;67.61;96462.72;5027147;28;20227;-74
2023/01/28 07:20:00;;;;;;;3.47;2.57;;;;;;;3.37;67.74;96458.13;5025767;28;20201;-73
2023/01/28 07:22:29;;;;;;;3.20;2.37;;;;;;;3.41;67.87;96466.53;5025823;28;20767;-72
2023/01/28 07:24:57;;;;;;;2.20;1.63;;;;;;;3.40;67.88;96470.00;5025959;28;20194;-72
2023/01/28 07:27:24;;;;;;;4.10;2.40;;;;;;;3.40;67.36;96475.13;5025777;28;20198;-71
2023/01/28 07:29:51;;;;;;;2.50;1.80;;;;;;;3.37;67.65;96470.06;5025966;28;20273;-72
2023/01/28 07:32:18;;;;;;;2.30;2.10;;;;;;;3.43;67.34;96467.34;5026732;28;20218;-71
2023/01/28 07:34:45;;;;;;;2.70;2.20;;;;;;;3.37;67.82;96481.16;5026597;28;20562;-71
2023/01/28 07:37:12;;;;;;;2.47;2.07;;;;;;;3.36;68.45;96481.19;5025597;28;20202;-72
2023/01/28 07:39:39;;;;;;;3.40;2.00;;;;;;;3.43;68.72;96477.56;5025505;28;20210;-72
2023/01/28 07:42:08;;;;;;;2.43;2.20;;;;;;;3.44;68.69;96484.38;5026767;28;20232;-72
2023/01/28 07:44:37;;;;;;;1.87;1.73;;;;;;;3.36;68.63;96492.25;5042209;28;20198;-72
2023/01/28 07:47:06;;;;;;;3.20;2.20;;;;;;;3.55;68.04;96495.16;5044582;28;20558;-71
2023/01/28 07:49:34;;;;;;;1.80;1.63;;;;;;;3.50;68.13;96484.22;5046510;28;20189;-72
2023/01/28 07:52:01;;;;;;;2.10;1.90;;;;;;;3.55;67.65;96490.03;5044614;28;20186;-72
2023/01/28 07:54:29;;;;;;;3.53;2.70;;;;;;;3.76;67.61;96497.13;5045910;28;20199;-72
2023/01/28 07:56:56;;;;;;;2.73;2.33;;;;;;;3.74;66.28;96496.34;5046691;28;20281;-73
2023/01/28 07:59:23;;;;;;;1.47;1.37;;;;;;;3.77;66.11;96514.19;5045474;28;20293;-74
2023/01/28 08:01:50;;;;;;;4.13;2.93;;;;;;;3.70;66.58;96500.72;5045012;28;21158;-73
2023/01/28 08:04:20;;;;;;;8.20;1.90;;;;;;;3.79;66.23;96500.44;5045831;28;20202;-74
2023/01/28 08:06:48;;;;;;;2.63;1.87;;;;;;;3.95;65.86;96503.44;5050134;28;20735;-73
2023/01/28 08:09:15;;;;;;;1.93;1.73;;;;;;;3.89;65.34;96503.59;5049438;28;20201;-73
2023/01/28 08:11:42;;;;;;;2.83;1.90;;;;;;;3.82;65.02;96505.50;5049550;28;20561;-73
2023/01/28 08:14:10;;;;;;;2.07;1.73;;;;;;;3.86;65.51;96503.66;5050104;28;20189;-74
2023/01/28 08:16:37;;;;;;;2.00;1.70;;;;;;;3.83;65.50;96486.66;5048958;28;20191;-75
2023/01/28 08:19:44;;;;;;;2.80;2.30;;;;;;;4.09;64.89;96508.97;5031201;28;20199;-75
2023/01/28 08:23:04;;;;;;;3.33;2.47;;;;;;;4.38;63.29;96515.81;5034133;28;20226;-71
2023/01/28 08:26:25;;;;;;;3.23;2.93;;;;;;;4.52;63.46;96524.78;5028362;28;20995;-71
2023/01/28 08:29:46;;;;;;;1.60;1.30;;;;;;;4.32;63.47;96510.88;5029183;28;20183;-74
2023/01/28 08:32:29;;;;;;;5.93;2.43;;;;;;;4.52;63.32;96523.91;5041823;28;20674;-74
2023/01/28 08:34:58;;;;;;;2.43;1.90;;;;;;;4.80;62.77;96538.41;5050939;28;20203;-74
2023/01/28 08:37:26;;;;;;;5.47;2.93;;;;;;;4.88;62.91;96538.19;5029561;28;20298;-77
2023/01/28 08:39:53;;;;;;;3.57;2.97;;;;;;;4.78;62.45;96527.34;5029249;28;20191;-77
2023/01/28 08:42:21;;;;;;;5.23;3.10;;;;;;;4.84;61.30;96519.47;5042723;28;20241;-78
2023/01/28 08:44:48;;;;;;;4.90;3.10;;;;;;;4.63;62.52;96497.09;5058267;28;20298;-76
2023/01/28 08:47:15;;;;;;;6.33;3.53;;;;;;;4.97;62.24;96537.88;5048793;28;20559;-74
2023/01/28 08:49:42;;;;;;;6.20;3.40;;;;;;;5.26;62.60;96552.31;5048759;28;20194;-75
2023/01/28 08:52:10;;;;;;;7.23;3.10;;;;;;;5.25;61.80;96554.09;5048926;28;20269;-74
2023/01/28 08:54:37;;;;;;;3.40;1.90;;;;;;;5.27;62.47;96549.75;5049539;28;20821;-74
2023/01/28 08:57:04;;;;;;;6.30;2.97;;;;;;;5.42;61.89;96556.09;5050216;28;20209;-77
2023/01/28 08:59:33;;;;;;;4.83;2.73;;;;;;;5.59;61.24;96546.06;5014816;28;20205;-77
2023/01/28 09:02:00;;;;;;;8.30;3.70;;;;;;;5.73;61.61;96541.28;5049308;28;20227;-77
2023/01/28 09:04:28;;;;;;;3.20;2.80;;;;;;;5.72;61.84;96550.75;5048022;28;20224;-75
2023/01/28 09:06:56;;;;;;;5.33;4.47;;;;;;;5.67;62.36;96554.34;5047924;28;20261;-77
2023/01/28 09:09:25;;;;;;;5.00;3.53;;;;;;;5.27;62.28;96520.66;5046651;28;20209;-78
2023/01/28 09:11:52;;;;;;;9.10;4.80;;;;;;;5.48;62.50;96558.44;5031196;28;20216;-74
2023/01/28 09:14:20;;;;;;;11.20;7.20;;;;;;;5.29;64.95;96521.44;5047327;28;20285;-76
2023/01/28 09:16:47;;;;;;;15.20;7.57;;;;;;;5.40;66.54;96542.47;5030516;28;20203;-75
2023/01/28 09:19:14;;;;;;;7.80;6.03;;;;;;;5.51;65.70;96555.75;5048960;28;20664;-74
2023/01/28 09:21:42;;;;;;;8.40;5.27;;;;;;;5.29;64.91;96560.78;5045924;28;20732;-74
2023/01/28 09:24:13;;;;;;;18.23;8.70;;;;;;;5.39;65.48;96556.19;5047679;28;20286;-75
2023/01/28 09:26:40;;;;;;;12.77;7.13;;;;;;;5.44;65.49;96526.06;5046159;28;20453;-75
2023/01/28 09:29:07;;;;;;;16.57;7.50;;;;;;;5.98;64.79;96549.84;5014365;28;20590;-77
2023/01/28 09:31:34;;;;;;;9.40;4.13;;;;;;;5.99;60.79;96543.00;5030005;28;20681;-74
2023/01/28 09:34:02;;;;;;;5.40;2.63;;;;;;;5.91;59.99;96545.84;5046700;28;20195;-75
2023/01/28 09:36:30;;;;;;;3.63;2.40;;;;;;;6.10;59.71;96546.84;5048522;28;20182;-76
2023/01/28 09:38:57;;;;;;;3.97;2.63;;;;;;;6.39;61.52;96556.06;5045944;28;20193;-79
2023/01/28 09:41:41;;;;;;;4.63;3.17;;;;;;;6.56;60.17;96557.13;5046638;28;20239;-74
2023/01/28 09:44:27;;;;;;;6.47;3.07;;;;;;;6.56;59.02;96557.13;5047339;28;20629;-74
2023/01/28 09:47:00;;;;;;;8.90;4.40;;;;;;;6.67;58.93;96563.59;5046557;28;20204;-76
2023/01/28 09:49:45;;;;;;;5.50;3.33;;;;;;;6.79;59.01;96568.25;5030009;28;20738;-74
2023/01/28 09:52:16;;;;;;;5.77;3.17;;;;;;;6.86;59.04;96569.72;5046788;28;20221;-73
2023/01/28 09:55:01;;;;;;;7.57;3.43;;;;;;;6.92;58.89;96570.31;5030560;28;20583;-74
2023/01/28 09:57:41;;;;;;;6.50;4.60;;;;;;;6.80;58.50;96564.81;5030100;28;20540;-77
2023/01/28 10:00:21;;;;;;;5.47;3.17;;;;;;;6.71;58.20;96578.84;5047384;28;20696;-75
2023/01/28 10:03:36;;;;;;;2.77;2.07;;;;;;;6.77;58.39;96565.75;5048234;28;20220;-75
2023/01/28 10:06:14;;;;;;;12.23;2.70;;;;;;;6.72;58.48;96577.13;4996094;28;20300;-75
2023/01/28 10:08:53;;;;;;;5.50;3.10;;;;;;;6.53;59.14;96572.66;5039959;28;20241;-75
2023/01/28 10:11:44;;;;;;;3.93;2.60;;;;;;;6.14;59.22;96568.97;5026851;28;20193;-78
2023/01/28 10:14:39;;;;;;;3.70;2.27;;;;;;;5.91;60.58;96566.41;5028223;28;20550;-74
2023/01/28 10:17:20;;;;;;;2.97;2.30;;;;;;;6.20;59.92;96566.16;5038365;28;20234;-73
2023/01/28 10:19:50;;;;;;;4.77;3.10;;;;;;;6.08;59.86;96561.47;5033845;28;20683;-77
2023/01/28 10:22:24;;;;;;;4.10;2.40;;;;;;;6.20;60.38;96553.31;5030715;28;20243;-76
2023/01/28 10:25:05;;;;;;;7.83;3.53;;;;;;;6.43;61.08;96561.03;5027705;28;20246;-74
2023/01/28 10:27:36;;;;;;;8.10;3.37;;;;;;;6.33;60.30;96553.72;5026941;28;20196;-74
2023/01/28 10:30:26;;;;;;;7.97;4.77;;;;;;;6.44;59.71;96557.59;5027159;28;20216;-73
2023/01/28 10:33:26;;;;;;;7.60;4.77;;;;;;;6.54;59.63;96561.47;5042619;28;20202;-74
2023/01/28 10:35:55;;;;;;;4.07;2.80;;;;;;;6.65;58.50;96567.94;5014001;28;20223;-74
2023/01/28 10:38:26;;;;;;;4.90;2.47;;;;;;;6.61;58.87;96554.38;5028659;28;20197;-75
2023/01/28 10:40:59;;;;;;;5.10;3.00;;;;;;;6.41;58.00;96556.84;5026784;28;20723;-74
2023/01/28 10:43:31;;;;;;;6.77;3.77;;;;;;;6.53;57.66;96548.69;5026894;28;20197;-76
2023/01/28 10:46:05;;;;;;;8.70;5.00;;;;;;;6.58;58.04;96560.47;5027413;28;20347;-75
2023/01/28 10:48:36;;;;;;;4.20;2.80;;;;;;;6.62;57.75;96560.34;5041125;28;20284;-77
2023/01/28 10:51:05;;;;;;;7.43;4.80;;;;;;;6.49;58.27;96557.41;5027416;28;20697;-75
2023/01/28 10:53:41;;;;;;;3.90;2.70;;;;;;;6.21;58.91;96561.88;5041557;28;20519;-75
2023/01/28 10:56:27;;;;;;;5.03;4.30;;;;;;;6.23;58.69;96573.78;5046406;28;20243;-75
2023/01/28 10:58:58;;;;;;;3.67;2.60;;;;;;;6.38;58.13;96560.38;5047054;28;20683;-75
2023/01/28 11:01:38;;;;;;;8.80;2.93;;;;;;;6.50;56.27;96547.06;5060968;28;20747;-74
2023/01/28 11:04:15;;;;;;;2.80;2.40;;;;;;;6.21;57.72;96519.03;5047244;28;20213;-75
2023/01/28 11:07:18;;;;;;;4.70;2.50;;;;;;;6.55;57.23;96555.44;5046858;28;20580;-75
2023/01/28 11:09:48;;;;;;;5.73;2.30;;;;;;;6.74;56.56;96549.59;5045840;28;20204;-75
2023/01/28 11:12:21;;;;;;;2.10;1.90;;;;;;;7.08;56.08;96557.66;5040589;28;20231;-74
2023/01/28 11:14:54;;;;;;;5.37;2.00;;;;;;;7.22;55.62;96539.94;5028332;28;20206;-74
2023/01/28 11:17:24;;;;;;;5.10;1.83;;;;;;;7.13;56.34;96543.69;5046720;28;20186;-75
2023/01/28 11:19:59;;;;;;;6.13;2.70;;;;;;;7.28;57.00;96550.81;5029947;28;20300;-78
2023/01/28 11:22:35;;;;;;;4.53;2.40;;;;;;;7.34;56.40;96545.41;5025570;28;20266;-74
2023/01/28 11:25:15;;;;;;;8.47;4.03;;;;;;;7.47;56.68;96543.19;5025257;28;20344;-73
2023/01/28 11:27:47;;;;;;;7.63;3.10;;;;;;;7.52;55.45;96543.84;5025423;28;20194;-74
2023/01/28 11:30:25;;;;;;;8.80;3.97;;;;;;;7.24;56.81;96546.69;5026802;28;20206;-74
2023/01/28 11:33:16;;;;;;;5.57;3.43;;;;;;;7.39;57.72;96546.06;5025151;28;20203;-74
2023/01/28 11:35:56;;;;;;;8.97;2.90;;;;;;;7.55;56.52;96540.28;5023783;28;20192;-75
2023/01/28 11:38:24;;;;;;;4.77;3.17;;;;;;;7.38;56.18;96548.69;5028931;28;20196;-75
2023/01/28 11:40:53;;;;;;;5.93;2.87;;;;;;;7.13;56.98;96530.81;5045354;28;20232;-75
2023/01/28 11:43:25;;;;;;;3.13;2.60;;;;;;;7.30;56.16;96535.28;5044914;28;20217;-75
2023/01/28 11:46:28;;;;;;;4.63;2.50;;;;;;;7.38;56.60;96551.28;5030523;28;20752;-75
2023/01/28 11:48:57;;;;;;;3.20;2.50;;;;;;;7.00;56.40;96552.00;4988077;28;20210;-75
2023/01/28 11:51:41;;;;;;;3.53;2.27;;;;;;;7.09;57.12;96559.34;5036211;28;20209;-74
2023/01/28 11:55:03;;;;;;;2.80;1.80;;;;;;;7.01;55.61;96561.38;5007865;28;20199;-75
2023/01/28 11:57:33;;;;;;;2.43;1.93;;;;;;;7.26;55.13;96552.63;4962834;28;20209;-73
2023/01/28 12:00:26;;;;;;;4.80;1.90;;;;;;;7.18;55.88;96561.53;5028785;28;20283;-74
2023/01/28 12:03:05;;;;;;;1.67;1.50;;;;;;;7.27;54.48;96558.63;5028086;28;20230;-75
2023/01/28 12:05:41;;;;;;;2.60;1.70;;;;;;;7.39;55.00;96558.09;5045770;28;20253;-74
2023/01/28 12:08:18;;;;;;;4.30;1.73;;;;;;;7.39;54.52;96561.53;5045511;28;20185;-74
2023/01/28 12:11:06;;;;;;;4.50;2.00;;;;;;;7.50;53.80;96568.78;5034995;28;20255;-78
2023/01/28 12:13:59;;;;;;;1.93;1.73;;;;;;;7.61;54.13;96565.78;5035068;28;20665;-75
2023/01/28 12:16:38;;;;;;;5.20;4.20;;;;;;;7.64;53.90;96560.50;5040928;28;20195;-79
2023/01/28 12:19:18;;;;;;;3.13;1.97;;;;;;;7.01;57.18;96559.66;5058707;28;20204;-76
2023/01/28 12:22:08;;;;;;;9.43;2.80;;;;;;;7.05;57.66;96568.06;5045298;28;20743;-77
2023/01/28 12:25:11;;;;;;;5.43;2.87;;;;;;;7.08;57.73;96575.69;5026973;28;20293;-74
2023/01/28 12:28:06;;;;;;;3.90;2.97;;;;;;;7.12;57.08;96577.25;5025380;28;20244;-74
2023/01/28 12:30:54;;;;;;;4.00;2.33;;;;;;;7.25;56.55;96574.09;5034276;28;20197;-76
2023/01/28 12:33:49;;;;;;;9.37;2.90;;;;;;;7.31;56.05;96579.03;5038374;28;20625;-74
2023/01/28 12:36:35;;;;;;;2.07;1.80;;;;;;;7.19;55.02;96579.50;5038794;28;20207;-74
2023/01/28 12:39:32;;;;;;;2.47;1.77;;;;;;;7.25;55.42;96591.31;5037589;28;20202;-74
2023/01/28 12:42:18;;;;;;;2.87;1.87;;;;;;;7.50;54.93;96589.41;4971998;28;20236;-75
2023/01/28 12:45:03;;;;;;;3.27;1.80;;;;;;;7.30;55.29;96592.81;5023867;28;20647;-75
2023/01/28 12:47:36;;;;;;;4.83;2.60;;;;;;;7.10;56.45;96582.47;5042163;28;20262;-74
2023/01/28 12:50:16;;;;;;;4.67;2.80;;;;;;;7.10;56.69;96587.59;5045278;28;20189;-75